Time;durP1;ratioP1;P1;durP2;ratioP2;P2;SDS_P1;SDS_P2;PMS_P1;PMS_P2;Temp;Humidity;BMP_temperature;BMP_pressure;BME280_temperature;BME280_humidity;BME280_pressure;Samples;Min_cycle;Max_cycle;Signal;HPM_P1;HPM_P2
2023/09/17 00:00:28;;;;;;;31.58;25.58;;;;;;;;;;5024792;28;20815;-65
2023/09/17 00:02:56;;;;;;;36.58;28.80;;;;;;;;;;5025166;28;20513;-66
2023/09/17 00:05:23;;;;;;;34.80;28.83;;;;;;;;;;5027358;28;20455;-64
2023/09/17 00:07:50;;;;;;;36.78;28.73;;;;;;;;;;5024834;28;20422;-65
2023/09/17 00:10:17;;;;;;;35.00;27.88;;;;;;;;;;5026408;28;20415;-64
2023/09/17 00:12:44;;;;;;;35.42;28.70;;;;;;;;;;5022064;28;20415;-65
2023/09/17 00:15:13;;;;;;;36.65;29.42;;;;;;;;;;5021448;28;20492;-64
2023/09/17 00:17:40;;;;;;;39.22;30.73;;;;;;;;;;5021728;28;20415;-65
2023/09/17 00:20:11;;;;;;;39.13;30.20;;;;;;;;;;5028212;28;20419;-65
2023/09/17 00:22:38;;;;;;;35.78;29.33;;;;;;;;;;5024050;28;20427;-65
2023/09/17 00:25:06;;;;;;;34.70;29.10;;;;;;;;;;5021625;28;20426;-65
2023/09/17 00:27:33;;;;;;;36.17;28.83;;;;;;;;;;5020568;28;20463;-66
2023/09/17 00:30:00;;;;;;;35.38;28.27;;;;;;;;;;5024986;28;20976;-65
2023/09/17 00:32:27;;;;;;;30.23;25.75;;;;;;;;;;5024971;28;21184;-66
2023/09/17 00:34:54;;;;;;;33.50;25.33;;;;;;;;;;5021936;28;20473;-65
2023/09/17 00:37:23;;;;;;;30.60;24.77;;;;;;;;;;5019079;28;20470;-66
2023/09/17 00:39:50;;;;;;;28.40;24.13;;;;;;;;;;5027991;28;20423;-66
2023/09/17 00:42:17;;;;;;;29.98;25.33;;;;;;;;;;5020904;28;20436;-65
2023/09/17 00:44:44;;;;;;;31.25;26.20;;;;;;;;;;5027389;28;20477;-66
2023/09/17 00:47:11;;;;;;;33.67;26.50;;;;;;;;;;5020870;28;20784;-65
2023/09/17 00:49:38;;;;;;;29.50;25.30;;;;;;;;;;5026271;28;20498;-66
2023/09/17 00:52:09;;;;;;;32.13;25.47;;;;;;;;;;5020880;28;20741;-65
2023/09/17 00:54:37;;;;;;;33.20;26.60;;;;;;;;;;5023685;28;20864;-65
2023/09/17 00:57:04;;;;;;;33.85;28.00;;;;;;;;;;5018965;28;20438;-65
2023/09/17 00:59:31;;;;;;;38.90;31.40;;;;;;;;;;5026882;28;20549;-65
2023/09/17 01:01:58;;;;;;;38.78;31.35;;;;;;;;;;5023068;28;20454;-64
2023/09/17 01:04:26;;;;;;;43.70;33.85;;;;;;;;;;5026545;28;20412;-65
2023/09/17 01:06:55;;;;;;;40.55;32.58;;;;;;;;;;5026600;28;20419;-65
2023/09/17 01:09:22;;;;;;;43.00;33.73;;;;;;;;;;5024537;28;20444;-65
2023/09/17 01:11:51;;;;;;;44.38;34.03;;;;;;;;;;5018473;28;20897;-65
2023/09/17 01:14:18;;;;;;;45.03;34.53;;;;;;;;;;5023787;28;20500;-66
2023/09/17 01:16:46;;;;;;;48.35;36.80;;;;;;;;;;5022510;28;20897;-65
2023/09/17 01:19:16;;;;;;;50.55;37.85;;;;;;;;;;5024183;28;20877;-65
2023/09/17 01:21:46;;;;;;;47.00;36.45;;;;;;;;;;5021754;28;20947;-65
2023/09/17 01:24:19;;;;;;;41.80;34.30;;;;;;;;;;5019676;28;20465;-65
2023/09/17 01:26:47;;;;;;;40.22;32.75;;;;;;;;;;5019102;28;20409;-65
2023/09/17 01:29:16;;;;;;;42.30;34.53;;;;;;;;;;5022998;28;20428;-65
2023/09/17 01:31:44;;;;;;;41.42;33.33;;;;;;;;;;5025206;28;20465;-65
2023/09/17 01:34:11;;;;;;;38.97;32.75;;;;;;;;;;5022994;28;20422;-65
2023/09/17 01:36:40;;;;;;;41.38;33.50;;;;;;;;;;5024430;28;20885;-65
2023/09/17 01:39:13;;;;;;;44.45;35.80;;;;;;;;;;5023907;28;20426;-65
2023/09/17 01:41:41;;;;;;;42.47;34.38;;;;;;;;;;5025107;28;20427;-65
2023/09/17 01:44:08;;;;;;;42.00;33.75;;;;;;;;;;5022397;28;20469;-66
2023/09/17 01:46:37;;;;;;;43.15;34.00;;;;;;;;;;5014839;28;20836;-65
2023/09/17 01:49:05;;;;;;;40.30;32.15;;;;;;;;;;5020242;28;20799;-65
2023/09/17 01:51:32;;;;;;;38.67;32.13;;;;;;;;;;5026184;28;20421;-65
2023/09/17 01:54:00;;;;;;;35.92;30.27;;;;;;;;;;5010705;28;20427;-64
2023/09/17 01:56:28;;;;;;;39.92;31.85;;;;;;;;;;5016729;28;20510;-65
2023/09/17 01:58:55;;;;;;;37.47;32.58;;;;;;;;;;5015134;28;20818;-65
2023/09/17 02:01:22;;;;;;;41.53;32.65;;;;;;;;;;5015074;28;20471;-64
2023/09/17 02:03:50;;;;;;;39.47;33.38;;;;;;;;;;5018620;28;20496;-65
2023/09/17 02:06:17;;;;;;;41.60;33.80;;;;;;;;;;5021630;28;20412;-63
2023/09/17 02:08:44;;;;;;;40.05;32.72;;;;;;;;;;5019039;28;20416;-65
2023/09/17 02:11:11;;;;;;;37.53;31.10;;;;;;;;;;5013356;28;20446;-66
2023/09/17 02:13:38;;;;;;;37.97;30.55;;;;;;;;;;5021221;28;20421;-65
2023/09/17 02:16:05;;;;;;;37.25;31.70;;;;;;;;;;5018841;28;20470;-65
2023/09/17 02:18:32;;;;;;;35.93;31.07;;;;;;;;;;5021323;28;20841;-65
2023/09/17 02:21:01;;;;;;;36.20;30.27;;;;;;;;;;5015583;28;20408;-65
2023/09/17 02:23:28;;;;;;;34.40;29.63;;;;;;;;;;5017425;28;20430;-65
2023/09/17 02:25:55;;;;;;;36.55;30.65;;;;;;;;;;5019771;28;20897;-65
2023/09/17 02:28:21;;;;;;;37.83;30.35;;;;;;;;;;5022156;28;20411;-65
2023/09/17 02:30:48;;;;;;;35.10;30.08;;;;;;;;;;5022814;28;20421;-66
2023/09/17 02:33:15;;;;;;;37.38;30.45;;;;;;;;;;5018227;28;20422;-65
2023/09/17 02:35:42;;;;;;;34.93;28.90;;;;;;;;;;5010959;28;20428;-64
2023/09/17 02:38:10;;;;;;;33.97;28.70;;;;;;;;;;5019778;28;20473;-65
2023/09/17 02:40:37;;;;;;;32.58;28.98;;;;;;;;;;5016715;28;20419;-65
2023/09/17 02:43:04;;;;;;;36.10;29.77;;;;;;;;;;5019054;28;20483;-64
2023/09/17 02:45:31;;;;;;;33.20;29.40;;;;;;;;;;5017420;28;20431;-65
2023/09/17 02:47:58;;;;;;;34.13;28.38;;;;;;;;;;5019395;28;20895;-64
2023/09/17 02:50:26;;;;;;;35.20;29.55;;;;;;;;;;5017491;28;20422;-65
2023/09/17 02:52:53;;;;;;;34.63;29.63;;;;;;;;;;5015964;28;20478;-65
2023/09/17 02:55:21;;;;;;;35.97;29.63;;;;;;;;;;5018140;28;20417;-65
2023/09/17 02:57:49;;;;;;;34.92;29.90;;;;;;;;;;5024212;28;20469;-65
2023/09/17 03:00:17;;;;;;;36.05;30.60;;;;;;;;;;5028307;28;20425;-65
2023/09/17 03:02:47;;;;;;;35.03;30.37;;;;;;;;;;5024464;28;20517;-65
2023/09/17 03:05:14;;;;;;;33.08;28.58;;;;;;;;;;5027415;28;20423;-65
2023/09/17 03:07:43;;;;;;;37.67;31.10;;;;;;;;;;5027060;28;20415;-65
2023/09/17 03:10:12;;;;;;;33.85;29.38;;;;;;;;;;5026141;28;20419;-65
2023/09/17 03:12:40;;;;;;;35.88;30.85;;;;;;;;;;5026422;28;20424;-66
2023/09/17 03:15:08;;;;;;;35.83;30.38;;;;;;;;;;5027307;28;20790;-64
2023/09/17 03:17:37;;;;;;;35.45;29.48;;;;;;;;;;5025563;28;20471;-65
2023/09/17 03:20:13;;;;;;;37.28;30.48;;;;;;;;;;5020500;28;20461;-66
2023/09/17 03:22:40;;;;;;;36.25;30.55;;;;;;;;;;5026311;28;20438;-66
2023/09/17 03:25:08;;;;;;;34.55;30.27;;;;;;;;;;5024068;28;20492;-65
2023/09/17 03:27:35;;;;;;;35.70;29.73;;;;;;;;;;5022720;28;20439;-65
2023/09/17 03:30:04;;;;;;;37.75;31.45;;;;;;;;;;5023680;28;20465;-65
2023/09/17 03:32:31;;;;;;;37.00;32.15;;;;;;;;;;5027396;28;20448;-65
2023/09/17 03:34:58;;;;;;;37.83;32.25;;;;;;;;;;5026871;28;20418;-66
2023/09/17 03:37:26;;;;;;;38.75;32.42;;;;;;;;;;5031270;28;20480;-66
2023/09/17 03:40:07;;;;;;;39.10;33.33;;;;;;;;;;5026796;28;20848;-65
2023/09/17 03:42:34;;;;;;;35.97;30.75;;;;;;;;;;5026927;28;20519;-65
2023/09/17 03:45:01;;;;;;;38.17;33.03;;;;;;;;;;5023717;28;20893;-64
2023/09/17 03:47:30;;;;;;;39.08;32.88;;;;;;;;;;5026237;28;20478;-66
2023/09/17 03:49:57;;;;;;;38.75;32.00;;;;;;;;;;5023978;28;20475;-66
2023/09/17 03:52:24;;;;;;;42.35;34.22;;;;;;;;;;5025126;28;20438;-65
2023/09/17 03:54:52;;;;;;;40.25;32.38;;;;;;;;;;5020694;28;20772;-65
2023/09/17 03:57:19;;;;;;;38.50;31.80;;;;;;;;;;5021421;28;20430;-66
2023/09/17 03:59:47;;;;;;;40.00;32.78;;;;;;;;;;5021749;28;20406;-66
2023/09/17 04:02:14;;;;;;;39.45;33.47;;;;;;;;;;5020908;28;20431;-66
2023/09/17 04:04:43;;;;;;;37.22;32.33;;;;;;;;;;5023497;28;20427;-66
2023/09/17 04:07:10;;;;;;;38.08;33.33;;;;;;;;;;5027006;28;20794;-65
2023/09/17 04:09:37;;;;;;;41.85;34.60;;;;;;;;;;5022350;28;20417;-65
2023/09/17 04:12:04;;;;;;;42.37;34.27;;;;;;;;;;5027540;28;20415;-64
2023/09/17 04:14:32;;;;;;;42.92;36.00;;;;;;;;;;5021462;28;20413;-66
2023/09/17 04:17:00;;;;;;;46.13;36.42;;;;;;;;;;5027355;28;20506;-65
2023/09/17 04:19:27;;;;;;;46.80;36.95;;;;;;;;;;5018133;28;20408;-65
2023/09/17 04:21:55;;;;;;;47.00;37.28;;;;;;;;;;5026887;28;20422;-66
2023/09/17 04:24:22;;;;;;;44.75;37.13;;;;;;;;;;5023044;28;20793;-65
2023/09/17 04:26:52;;;;;;;42.60;36.28;;;;;;;;;;5020350;28;20417;-66
2023/09/17 04:29:19;;;;;;;38.50;33.80;;;;;;;;;;5023712;28;20421;-66
2023/09/17 04:31:47;;;;;;;43.67;36.05;;;;;;;;;;5026149;28;21075;-66
2023/09/17 04:34:14;;;;;;;42.55;35.22;;;;;;;;;;5023591;28;20404;-66
2023/09/17 04:36:41;;;;;;;43.38;36.85;;;;;;;;;;5025024;28;20416;-66
2023/09/17 04:39:10;;;;;;;42.57;34.73;;;;;;;;;;5023866;28;20469;-66
2023/09/17 04:41:37;;;;;;;43.90;34.53;;;;;;;;;;5024507;28;20421;-66
2023/09/17 04:44:06;;;;;;;43.08;34.92;;;;;;;;;;5022956;28;20481;-65
2023/09/17 04:46:33;;;;;;;45.92;37.55;;;;;;;;;;5023703;28;20421;-65
2023/09/17 04:49:00;;;;;;;45.10;37.47;;;;;;;;;;5025722;28;20414;-65
2023/09/17 04:51:27;;;;;;;45.93;37.63;;;;;;;;;;5023004;28;20474;-65
2023/09/17 04:53:54;;;;;;;46.97;37.22;;;;;;;;;;5025386;28;20755;-65
2023/09/17 04:56:22;;;;;;;48.05;39.10;;;;;;;;;;5019679;28;20420;-64
2023/09/17 04:58:49;;;;;;;45.67;36.08;;;;;;;;;;5024861;28;20897;-66
2023/09/17 05:01:16;;;;;;;46.75;38.25;;;;;;;;;;5023116;28;20472;-66
2023/09/17 05:03:46;;;;;;;51.38;40.17;;;;;;;;;;5024204;28;20507;-66
2023/09/17 05:06:13;;;;;;;56.30;42.55;;;;;;;;;;5027486;28;20425;-64
2023/09/17 05:08:40;;;;;;;61.17;44.50;;;;;;;;;;5025165;28;20416;-65
2023/09/17 05:11:07;;;;;;;60.47;45.20;;;;;;;;;;5026213;28;20437;-64
2023/09/17 05:13:35;;;;;;;56.05;43.30;;;;;;;;;;5026162;28;20412;-65
2023/09/17 05:16:03;;;;;;;56.47;43.75;;;;;;;;;;5024009;28;20411;-64
2023/09/17 05:18:30;;;;;;;57.33;43.58;;;;;;;;;;5025463;28;20419;-64
2023/09/17 05:20:57;;;;;;;58.70;45.22;;;;;;;;;;5024853;28;20477;-64
2023/09/17 05:23:24;;;;;;;62.90;46.22;;;;;;;;;;5026847;28;20431;-64
2023/09/17 05:25:51;;;;;;;59.17;45.10;;;;;;;;;;5022629;28;20940;-63
2023/09/17 05:28:18;;;;;;;65.55;47.42;;;;;;;;;;5017639;28;20461;-64
2023/09/17 05:30:46;;;;;;;61.50;46.63;;;;;;;;;;5023503;28;20567;-64
2023/09/17 05:33:13;;;;;;;68.00;48.80;;;;;;;;;;5019100;28;20508;-64
2023/09/17 05:35:40;;;;;;;77.40;53.53;;;;;;;;;;5024290;28;20455;-64
2023/09/17 05:38:07;;;;;;;78.70;53.25;;;;;;;;;;5026944;28;20473;-64
2023/09/17 05:40:35;;;;;;;80.93;55.00;;;;;;;;;;5025931;28;20420;-64
2023/09/17 05:43:02;;;;;;;87.70;56.78;;;;;;;;;;5028750;28;20426;-64
2023/09/17 05:45:29;;;;;;;91.35;57.60;;;;;;;;;;5021367;28;20479;-64
2023/09/17 05:47:58;;;;;;;94.82;58.42;;;;;;;;;;5025113;28;20938;-64
2023/09/17 05:50:25;;;;;;;100.18;61.83;;;;;;;;;;5024046;28;20443;-64
2023/09/17 05:52:52;;;;;;;108.47;63.08;;;;;;;;;;5027356;28;20411;-64
2023/09/17 05:55:19;;;;;;;94.35;58.90;;;;;;;;;;5023700;28;20773;-64
2023/09/17 05:57:46;;;;;;;87.57;55.83;;;;;;;;;;5025456;28;20419;-64
2023/09/17 06:00:13;;;;;;;90.63;55.97;;;;;;;;;;5023687;28;20972;-64
2023/09/17 06:02:40;;;;;;;94.38;59.08;;;;;;;;;;5021454;28;20412;-64
2023/09/17 06:05:09;;;;;;;98.05;60.17;;;;;;;;;;5026493;28;20415;-64
2023/09/17 06:07:36;;;;;;;101.63;61.05;;;;;;;;;;5028267;28;20478;-64
2023/09/17 06:10:04;;;;;;;91.65;56.75;;;;;;;;;;5026161;28;20885;-64
2023/09/17 06:12:31;;;;;;;79.22;53.53;;;;;;;;;;5027500;28;20421;-64
2023/09/17 06:14:58;;;;;;;73.95;50.30;;;;;;;;;;5022143;28;20409;-64
2023/09/17 06:17:26;;;;;;;64.75;48.92;;;;;;;;;;5027345;28;20416;-64
2023/09/17 06:19:53;;;;;;;64.35;47.25;;;;;;;;;;5025951;28;20411;-64
2023/09/17 06:22:21;;;;;;;64.55;46.90;;;;;;;;;;5027388;28;20423;-64
2023/09/17 06:24:48;;;;;;;59.78;46.42;;;;;;;;;;5021770;28;20487;-64
2023/09/17 06:27:15;;;;;;;59.45;45.30;;;;;;;;;;5021965;28;20485;-63
2023/09/17 06:29:42;;;;;;;60.60;45.53;;;;;;;;;;5021271;28;20420;-65
2023/09/17 06:32:09;;;;;;;57.67;44.33;;;;;;;;;;5025710;28;20461;-64
2023/09/17 06:34:36;;;;;;;57.42;43.40;;;;;;;;;;5025987;28;20469;-64
2023/09/17 06:37:03;;;;;;;54.92;42.42;;;;;;;;;;5028037;28;20410;-64
2023/09/17 06:39:32;;;;;;;53.55;41.83;;;;;;;;;;5024961;28;20430;-65
2023/09/17 06:41:59;;;;;;;54.13;42.73;;;;;;;;;;5027980;28;20423;-65
2023/09/17 06:44:26;;;;;;;53.78;42.95;;;;;;;;;;5020596;28;20430;-64
2023/09/17 06:46:53;;;;;;;55.50;42.55;;;;;;;;;;5023489;28;20427;-65
2023/09/17 06:49:20;;;;;;;52.43;40.13;;;;;;;;;;5024263;28;20457;-65
2023/09/17 06:51:48;;;;;;;52.28;39.58;;;;;;;;;;5026572;28;20920;-65
2023/09/17 06:54:15;;;;;;;47.22;37.58;;;;;;;;;;5027382;28;20410;-64
2023/09/17 06:56:43;;;;;;;50.08;38.78;;;;;;;;;;5022763;28;20416;-64
2023/09/17 06:59:10;;;;;;;45.92;37.53;;;;;;;;;;5027805;28;20450;-65
2023/09/17 07:01:39;;;;;;;41.17;35.50;;;;;;;;;;5025114;28;20440;-64
2023/09/17 07:04:06;;;;;;;37.33;31.38;;;;;;;;;;5027271;28;20470;-65
2023/09/17 07:06:33;;;;;;;36.15;30.70;;;;;;;;;;5024267;28;20416;-65
2023/09/17 07:09:00;;;;;;;37.58;30.42;;;;;;;;;;5027194;28;20503;-65
2023/09/17 07:11:27;;;;;;;31.77;28.03;;;;;;;;;;5023975;28;20417;-65
2023/09/17 07:13:56;;;;;;;28.90;25.00;;;;;;;;;;5022922;28;20857;-65
2023/09/17 07:16:24;;;;;;;26.98;23.80;;;;;;;;;;5023874;28;20847;-65
2023/09/17 07:18:51;;;;;;;24.00;21.25;;;;;;;;;;5026960;28;20790;-65
2023/09/17 07:21:18;;;;;;;22.45;20.05;;;;;;;;;;5024310;28;20502;-65
2023/09/17 07:23:50;;;;;;;23.77;20.23;;;;;;;;;;5028856;28;20983;-65
2023/09/17 07:26:19;;;;;;;21.67;19.02;;;;;;;;;;5022046;28;20415;-65
2023/09/17 07:28:46;;;;;;;21.08;18.83;;;;;;;;;;5024965;28;20464;-65
2023/09/17 07:31:16;;;;;;;20.98;18.67;;;;;;;;;;5023700;28;20411;-65
2023/09/17 07:33:44;;;;;;;23.30;18.55;;;;;;;;;;5027397;28;20467;-65
2023/09/17 07:36:13;;;;;;;20.40;18.02;;;;;;;;;;5023615;28;20415;-66
2023/09/17 07:38:40;;;;;;;22.75;19.02;;;;;;;;;;5027188;28;20408;-65
2023/09/17 07:41:07;;;;;;;20.50;16.95;;;;;;;;;;5023404;28;20955;-65
2023/09/17 07:43:35;;;;;;;18.27;16.20;;;;;;;;;;5025844;28;20444;-64
2023/09/17 07:46:01;;;;;;;18.70;16.20;;;;;;;;;;5024968;28;20418;-65
2023/09/17 07:48:31;;;;;;;17.42;15.52;;;;;;;;;;5026975;28;20411;-65
2023/09/17 07:50:58;;;;;;;17.30;15.48;;;;;;;;;;5025311;28;20781;-63
2023/09/17 07:53:25;;;;;;;17.60;15.23;;;;;;;;;;5027017;28;20825;-64
2023/09/17 07:55:53;;;;;;;16.08;14.38;;;;;;;;;;5020646;28;20417;-65
2023/09/17 07:58:20;;;;;;;16.58;13.63;;;;;;;;;;5020994;28;20500;-65
2023/09/17 08:00:48;;;;;;;13.75;12.30;;;;;;;;;;5015983;28;20421;-64
2023/09/17 08:03:15;;;;;;;13.77;11.57;;;;;;;;;;5019716;28;20510;-66
2023/09/17 08:05:45;;;;;;;12.95;10.95;;;;;;;;;;5021727;28;20923;-65
2023/09/17 08:08:12;;;;;;;13.07;10.38;;;;;;;;;;5021757;28;20422;-66
2023/09/17 08:10:39;;;;;;;12.27;10.07;;;;;;;;;;5018393;28;20424;-64
2023/09/17 08:13:06;;;;;;;11.00;8.90;;;;;;;;;;5019807;28;20415;-63
2023/09/17 08:15:34;;;;;;;9.43;8.00;;;;;;;;;;5013193;28;20412;-64
2023/09/17 08:18:01;;;;;;;10.10;8.45;;;;;;;;;;5020681;28;20415;-65
2023/09/17 08:20:28;;;;;;;8.50;7.60;;;;;;;;;;5019016;28;20417;-65
2023/09/17 08:22:57;;;;;;;8.13;7.32;;;;;;;;;;5021685;28;20762;-65
2023/09/17 08:25:26;;;;;;;8.35;7.55;;;;;;;;;;5019269;28;20449;-65
2023/09/17 08:27:54;;;;;;;8.32;7.03;;;;;;;;;;5020505;28;20422;-63
2023/09/17 08:30:20;;;;;;;9.55;6.22;;;;;;;;;;5022929;28;20453;-64
2023/09/17 08:32:48;;;;;;;6.80;5.72;;;;;;;;;;5020983;28;20471;-63
2023/09/17 08:35:15;;;;;;;6.43;5.78;;;;;;;;;;5019521;28;20514;-64
2023/09/17 08:37:42;;;;;;;7.10;5.60;;;;;;;;;;5023258;28;20966;-63
2023/09/17 08:40:14;;;;;;;6.80;5.65;;;;;;;;;;5025993;28;20418;-63
2023/09/17 08:42:41;;;;;;;6.40;5.80;;;;;;;;;;5024499;28;20443;-64
2023/09/17 08:45:09;;;;;;;6.35;5.30;;;;;;;;;;5025404;28;20820;-64
2023/09/17 08:47:37;;;;;;;6.35;5.57;;;;;;;;;;5022955;28;20956;-64
2023/09/17 08:50:04;;;;;;;6.68;5.28;;;;;;;;;;5026441;28;20445;-64
2023/09/17 08:52:33;;;;;;;6.28;5.50;;;;;;;;;;5025047;28;20444;-65
2023/09/17 08:55:01;;;;;;;7.40;5.60;;;;;;;;;;5022175;28;20413;-63
2023/09/17 08:57:32;;;;;;;6.82;5.68;;;;;;;;;;5019654;28;20425;-64
2023/09/17 09:00:03;;;;;;;6.50;5.45;;;;;;;;;;5021988;28;20818;-63
2023/09/17 09:02:37;;;;;;;7.07;5.25;;;;;;;;;;5021252;28;20427;-62
2023/09/17 09:05:04;;;;;;;6.55;5.20;;;;;;;;;;5027703;28;20431;-64
2023/09/17 09:07:31;;;;;;;6.72;4.70;;;;;;;;;;5020731;28;20447;-64
2023/09/17 09:09:58;;;;;;;6.95;5.00;;;;;;;;;;5027606;28;20959;-63
2023/09/17 09:12:26;;;;;;;6.10;5.10;;;;;;;;;;5024107;28;20491;-63
2023/09/17 09:14:55;;;;;;;6.37;5.17;;;;;;;;;;5026215;28;20411;-63
2023/09/17 09:17:22;;;;;;;5.70;5.10;;;;;;;;;;5020851;28;20417;-63
2023/09/17 09:19:49;;;;;;;5.83;4.93;;;;;;;;;;5026652;28;20472;-63
2023/09/17 09:22:16;;;;;;;5.43;4.82;;;;;;;;;;5021342;28;20422;-64
2023/09/17 09:24:46;;;;;;;6.20;5.07;;;;;;;;;;5025280;28;20940;-63
2023/09/17 09:27:13;;;;;;;7.38;5.00;;;;;;;;;;5018892;28;20421;-64
2023/09/17 09:29:43;;;;;;;5.35;4.40;;;;;;;;;;5025244;28;20818;-64
2023/09/17 09:32:11;;;;;;;6.70;4.00;;;;;;;;;;5020043;28;20421;-64
2023/09/17 09:34:39;;;;;;;5.10;4.60;;;;;;;;;;5024590;28;20463;-64
2023/09/17 09:37:06;;;;;;;5.70;4.75;;;;;;;;;;5018950;28;20944;-63
2023/09/17 09:39:34;;;;;;;5.85;4.50;;;;;;;;;;5024494;28;20448;-63
2023/09/17 09:42:02;;;;;;;5.53;4.13;;;;;;;;;;5023358;28;20505;-64
2023/09/17 09:44:31;;;;;;;6.82;3.95;;;;;;;;;;5023848;28;20805;-63
2023/09/17 09:46:58;;;;;;;6.75;4.30;;;;;;;;;;5021812;28;20410;-64
2023/09/17 09:49:27;;;;;;;5.40;3.97;;;;;;;;;;5024171;28;20423;-63
2023/09/17 09:51:55;;;;;;;5.90;4.10;;;;;;;;;;5022543;28;20475;-63
2023/09/17 09:54:22;;;;;;;4.72;3.63;;;;;;;;;;5024765;28;20805;-63
2023/09/17 09:56:49;;;;;;;5.70;4.00;;;;;;;;;;5017529;28;20420;-63
2023/09/17 09:59:16;;;;;;;7.32;4.43;;;;;;;;;;5024406;28;20728;-63
2023/09/17 10:01:44;;;;;;;6.80;4.20;;;;;;;;;;5022882;28;20465;-64
2023/09/17 10:04:11;;;;;;;4.15;3.42;;;;;;;;;;5024692;28;20438;-64
2023/09/17 10:06:40;;;;;;;6.65;3.67;;;;;;;;;;5022538;28;20423;-64
2023/09/17 10:09:09;;;;;;;4.88;4.00;;;;;;;;;;5027750;28;20502;-64
2023/09/17 10:11:36;;;;;;;5.25;3.58;;;;;;;;;;5021921;28;20411;-64
2023/09/17 10:14:03;;;;;;;5.28;3.63;;;;;;;;;;5024373;28;20464;-64
2023/09/17 10:16:31;;;;;;;4.35;3.38;;;;;;;;;;5024514;28;20916;-62
2023/09/17 10:18:58;;;;;;;5.05;3.42;;;;;;;;;;5020579;28;20423;-63
2023/09/17 10:21:27;;;;;;;4.03;3.33;;;;;;;;;;5024395;28;20415;-63
2023/09/17 10:23:56;;;;;;;4.38;3.47;;;;;;;;;;5024260;28;20481;-62
2023/09/17 10:26:23;;;;;;;5.30;3.65;;;;;;;;;;5021838;28;20418;-63
2023/09/17 10:28:51;;;;;;;4.93;3.30;;;;;;;;;;5024307;28;20910;-63
2023/09/17 10:31:19;;;;;;;6.93;3.70;;;;;;;;;;5028402;28;20414;-63
2023/09/17 10:33:48;;;;;;;6.27;3.87;;;;;;;;;;5023548;28;20416;-62
2023/09/17 10:36:15;;;;;;;4.87;3.70;;;;;;;;;;5027852;28;20457;-63
2023/09/17 10:38:46;;;;;;;4.07;3.38;;;;;;;;;;5022250;28;20408;-63
2023/09/17 10:41:14;;;;;;;4.00;3.45;;;;;;;;;;5027529;28;20469;-63
2023/09/17 10:43:43;;;;;;;6.13;3.63;;;;;;;;;;5027195;28;20430;-63
2023/09/17 10:46:13;;;;;;;5.90;3.42;;;;;;;;;;5030413;28;20431;-63
2023/09/17 10:48:40;;;;;;;5.78;3.60;;;;;;;;;;5023387;28;20417;-63
2023/09/17 10:51:08;;;;;;;4.63;3.60;;;;;;;;;;5030094;28;20423;-63
2023/09/17 10:53:36;;;;;;;4.30;3.70;;;;;;;;;;5025853;28;20417;-63
2023/09/17 10:56:06;;;;;;;5.15;3.70;;;;;;;;;;5025794;28;20437;-63
2023/09/17 10:58:36;;;;;;;5.18;3.80;;;;;;;;;;5024852;28;20408;-63
2023/09/17 11:01:04;;;;;;;5.85;3.80;;;;;;;;;;5028398;28;20403;-64
2023/09/17 11:03:33;;;;;;;4.50;3.85;;;;;;;;;;5024685;28;20499;-64
2023/09/17 11:06:02;;;;;;;6.43;4.28;;;;;;;;;;5022776;28;20427;-63
2023/09/17 11:08:30;;;;;;;4.72;3.75;;;;;;;;;;5028473;28;20513;-64
2023/09/17 11:10:57;;;;;;;5.50;4.00;;;;;;;;;;5024167;28;20887;-64
2023/09/17 11:13:24;;;;;;;5.57;3.95;;;;;;;;;;5018046;28;20407;-64
2023/09/17 11:15:56;;;;;;;4.63;4.05;;;;;;;;;;5021378;28;20416;-64
2023/09/17 11:18:23;;;;;;;7.13;5.27;;;;;;;;;;5023683;28;20755;-64
2023/09/17 11:21:00;;;;;;;4.55;4.00;;;;;;;;;;5018589;28;20412;-64
2023/09/17 11:23:40;;;;;;;4.57;4.07;;;;;;;;;;5018765;28;20432;-63
2023/09/17 11:26:07;;;;;;;5.60;4.18;;;;;;;;;;5019662;28;20454;-64
2023/09/17 11:28:38;;;;;;;4.90;4.20;;;;;;;;;;5015607;28;20511;-63
2023/09/17 11:31:09;;;;;;;8.73;4.30;;;;;;;;;;5018014;28;20420;-63
2023/09/17 11:33:37;;;;;;;6.70;4.90;;;;;;;;;;5015229;28;20836;-65
2023/09/17 11:36:04;;;;;;;6.00;4.50;;;;;;;;;;5021940;28;20509;-66
2023/09/17 11:38:32;;;;;;;5.30;4.40;;;;;;;;;;5023122;28;20498;-66
2023/09/17 11:41:06;;;;;;;5.20;4.25;;;;;;;;;;5021592;28;20419;-67
2023/09/17 11:43:34;;;;;;;6.38;5.07;;;;;;;;;;5021473;28;20407;-65
2023/09/17 11:46:04;;;;;;;8.98;5.68;;;;;;;;;;5015260;28;20534;-66
2023/09/17 11:48:32;;;;;;;9.73;6.07;;;;;;;;;;5012989;28;20423;-65
2023/09/17 11:51:19;;;;;;;5.93;4.65;;;;;;;;;;5019955;28;21880;-65
2023/09/17 11:53:50;;;;;;;5.85;4.43;;;;;;;;;;5012210;28;20428;-66
2023/09/17 11:56:19;;;;;;;4.67;4.10;;;;;;;;;;5016344;28;20838;-65
2023/09/17 11:58:46;;;;;;;4.63;4.10;;;;;;;;;;5018466;28;20413;-65
2023/09/17 12:01:13;;;;;;;4.60;4.00;;;;;;;;;;5023809;28;20410;-67
2023/09/17 12:03:42;;;;;;;5.10;4.47;;;;;;;;;;5025542;28;20787;-66
2023/09/17 12:06:09;;;;;;;5.60;4.40;;;;;;;;;;5023536;28;20431;-70
2023/09/17 12:08:36;;;;;;;5.55;4.35;;;;;;;;;;5024424;28;20448;-66
2023/09/17 12:11:10;;;;;;;4.85;4.20;;;;;;;;;;5009131;28;20840;-67
2023/09/17 12:13:37;;;;;;;5.47;4.13;;;;;;;;;;5015088;28;20415;-66
2023/09/17 12:16:04;;;;;;;4.78;4.10;;;;;;;;;;5017007;28;21079;-64
2023/09/17 12:18:32;;;;;;;5.93;4.47;;;;;;;;;;5022175;28;21044;-63
2023/09/17 12:21:02;;;;;;;5.50;3.97;;;;;;;;;;5014192;28;20847;-63
2023/09/17 12:23:47;;;;;;;5.50;4.00;;;;;;;;;;5013646;28;20413;-65
2023/09/17 12:26:23;;;;;;;5.78;4.40;;;;;;;;;;5012466;28;20430;-66
2023/09/17 12:28:50;;;;;;;5.93;4.20;;;;;;;;;;5022715;28;20823;-66
2023/09/17 12:31:17;;;;;;;4.85;4.05;;;;;;;;;;5030423;28;20423;-65
2023/09/17 12:33:44;;;;;;;5.40;4.03;;;;;;;;;;5021050;28;20470;-66
2023/09/17 12:36:13;;;;;;;5.70;4.18;;;;;;;;;;5010288;28;20912;-65
2023/09/17 12:38:40;;;;;;;7.97;4.15;;;;;;;;;;5015856;28;20420;-67
2023/09/17 12:41:08;;;;;;;5.72;3.90;;;;;;;;;;5018450;28;20413;-64
2023/09/17 12:43:36;;;;;;;5.05;4.18;;;;;;;;;;5016315;28;20583;-65
2023/09/17 12:46:03;;;;;;;8.82;5.60;;;;;;;;;;5021459;28;20427;-66
2023/09/17 12:48:30;;;;;;;11.52;6.82;;;;;;;;;;5028029;28;20442;-66
2023/09/17 12:50:57;;;;;;;5.68;4.30;;;;;;;;;;5024766;28;20982;-66
2023/09/17 12:53:26;;;;;;;6.13;4.40;;;;;;;;;;5024518;28;20500;-66
2023/09/17 12:55:53;;;;;;;5.22;4.30;;;;;;;;;;5016049;28;20899;-65
2023/09/17 12:58:20;;;;;;;4.78;4.28;;;;;;;;;;5021360;28;20419;-64
2023/09/17 13:00:47;;;;;;;4.88;3.97;;;;;;;;;;5011262;28;20463;-65
2023/09/17 13:03:14;;;;;;;5.63;4.67;;;;;;;;;;5017710;28;20411;-65
2023/09/17 13:05:43;;;;;;;4.90;4.28;;;;;;;;;;5024121;28;20450;-65
2023/09/17 13:08:10;;;;;;;5.15;4.53;;;;;;;;;;5029219;28;20825;-65
2023/09/17 13:10:39;;;;;;;5.07;4.07;;;;;;;;;;5023664;28;20420;-66
2023/09/17 13:13:09;;;;;;;5.45;4.05;;;;;;;;;;5025787;28;20426;-66
2023/09/17 13:15:37;;;;;;;4.17;3.70;;;;;;;;;;5025316;28;20450;-66
2023/09/17 13:18:05;;;;;;;5.30;4.05;;;;;;;;;;5021925;28;20901;-66
2023/09/17 13:20:32;;;;;;;4.03;3.63;;;;;;;;;;5029055;28;20469;-66
2023/09/17 13:22:59;;;;;;;5.18;3.88;;;;;;;;;;5022831;28;20414;-65
2023/09/17 13:25:27;;;;;;;5.28;3.92;;;;;;;;;;5023206;28;20438;-64
2023/09/17 13:27:55;;;;;;;4.30;3.90;;;;;;;;;;5019267;28;20417;-64
2023/09/17 13:30:22;;;;;;;4.28;3.88;;;;;;;;;;5028305;28;20422;-64
2023/09/17 13:32:49;;;;;;;4.80;4.15;;;;;;;;;;5022065;28;20467;-65
2023/09/17 13:35:20;;;;;;;4.50;4.10;;;;;;;;;;5025460;28;20850;-64
2023/09/17 13:37:47;;;;;;;5.40;4.00;;;;;;;;;;5024959;28;20411;-65
2023/09/17 13:40:15;;;;;;;6.22;4.10;;;;;;;;;;5025845;28;20415;-65
2023/09/17 13:42:42;;;;;;;4.80;3.67;;;;;;;;;;5019391;28;20406;-65
2023/09/17 13:45:12;;;;;;;4.88;4.20;;;;;;;;;;5024811;28;20481;-65
2023/09/17 13:47:39;;;;;;;5.28;4.10;;;;;;;;;;5022573;28;20419;-65
2023/09/17 13:50:07;;;;;;;4.20;3.80;;;;;;;;;;5029299;28;20809;-65
2023/09/17 13:52:34;;;;;;;5.15;4.20;;;;;;;;;;5021952;28;20445;-66
2023/09/17 13:55:01;;;;;;;6.00;4.07;;;;;;;;;;5021591;28;20417;-66
2023/09/17 13:57:28;;;;;;;4.40;4.00;;;;;;;;;;5020605;28;20411;-66
2023/09/17 13:59:55;;;;;;;4.78;4.28;;;;;;;;;;5025195;28;20415;-66
2023/09/17 14:02:24;;;;;;;4.30;3.90;;;;;;;;;;5028896;28;20411;-66
2023/09/17 14:04:52;;;;;;;6.20;3.85;;;;;;;;;;5024981;28;22400;-66
2023/09/17 14:07:20;;;;;;;5.15;4.20;;;;;;;;;;5029197;28;20512;-67
2023/09/17 14:09:47;;;;;;;7.77;4.00;;;;;;;;;;5027197;28;20498;-65
2023/09/17 14:12:14;;;;;;;6.10;4.00;;;;;;;;;;5024595;28;20885;-66
2023/09/17 14:14:41;;;;;;;5.05;3.92;;;;;;;;;;5025562;28;20416;-65
2023/09/17 14:17:11;;;;;;;4.78;4.00;;;;;;;;;;5024533;28;20498;-65
2023/09/17 14:19:39;;;;;;;4.53;3.92;;;;;;;;;;5025374;28;20421;-66
2023/09/17 14:22:06;;;;;;;5.18;4.28;;;;;;;;;;5027735;28;20411;-66
2023/09/17 14:24:33;;;;;;;4.57;3.90;;;;;;;;;;5028003;28;20416;-66
2023/09/17 14:27:00;;;;;;;4.80;3.90;;;;;;;;;;5024297;28;20521;-67
2023/09/17 14:29:28;;;;;;;7.05;3.92;;;;;;;;;;5018522;28;20461;-66
2023/09/17 14:31:55;;;;;;;5.80;3.95;;;;;;;;;;5023769;28;20432;-66